Time;durP1;ratioP1;P1;durP2;ratioP2;P2;SDS_P1;SDS_P2;PMS_P1;PMS_P2;Temp;Humidity;BMP_temperature;BMP_pressure;BME280_temperature;BME280_humidity;BME280_pressure;Samples;Min_cycle;Max_cycle;Signal;HPM_P1;HPM_P2
2023/06/19 00:01:08;;;;;;;;;;;22.40;96.90;;;;;;7329971;19;108651;-58
2023/06/19 00:03:35;;;;;;;;;;;22.40;97.20;;;;;;7335676;19;109160;-57
2023/06/19 00:06:02;;;;;;;;;;;22.40;96.90;;;;;;7331067;19;109272;-57
2023/06/19 00:08:30;;;;;;;;;;;22.40;97.00;;;;;;7332732;19;109189;-58
2023/06/19 00:10:57;;;;;;;;;;;22.40;97.80;;;;;;7332644;19;110125;-57
2023/06/19 00:13:25;;;;;;;;;;;22.30;97.20;;;;;;7327074;19;111434;-56
2023/06/19 00:15:52;;;;;;;;;;;22.30;98.30;;;;;;7337744;19;108492;-56
2023/06/19 00:18:19;;;;;;;;;;;22.20;97.50;;;;;;7331109;19;112622;-56
2023/06/19 00:20:47;;;;;;;;;;;22.30;97.70;;;;;;7333006;19;109210;-57
2023/06/19 00:23:16;;;;;;;;;;;22.20;97.90;;;;;;7332057;19;109229;-57
2023/06/19 00:25:44;;;;;;;;;;;22.20;98.20;;;;;;7331395;19;110093;-58
2023/06/19 00:28:13;;;;;;;;;;;22.20;97.60;;;;;;7327826;19;108537;-57
2023/06/19 00:30:41;;;;;;;;;;;22.20;97.80;;;;;;7332221;19;110077;-58
2023/06/19 00:33:08;;;;;;;;;;;22.10;98.40;;;;;;7329429;19;110075;-58
2023/06/19 00:35:36;;;;;;;;;;;22.10;98.70;;;;;;7334527;19;109020;-57
2023/06/19 00:38:04;;;;;;;;;;;22.10;99.40;;;;;;7338615;19;109045;-56
2023/06/19 00:40:33;;;;;;;;;;;22.10;99.00;;;;;;7328515;19;109546;-56
2023/06/19 00:43:00;;;;;;;;;;;22.00;99.60;;;;;;7332150;19;113928;-57
2023/06/19 00:45:27;;;;;;;;;;;22.00;99.40;;;;;;7328469;19;109941;-57
2023/06/19 00:47:55;;;;;;;;;;;22.00;99.60;;;;;;7331952;19;110153;-55
2023/06/19 00:50:23;;;;;;;;;;;22.00;99.30;;;;;;7333607;19;109250;-56
2023/06/19 00:52:50;;;;;;;;;;;22.00;98.50;;;;;;7332815;19;109586;-56
2023/06/19 00:55:18;;;;;;;;;;;22.00;99.70;;;;;;7327075;19;111655;-55
2023/06/19 00:57:45;;;;;;;;;;;22.00;99.90;;;;;;7338846;19;109216;-58
2023/06/19 01:00:13;;;;;;;;;;;21.90;99.90;;;;;;7330003;19;108764;-57
2023/06/19 01:02:40;;;;;;;;;;;21.90;99.90;;;;;;7333123;19;110209;-54
2023/06/19 01:05:07;;;;;;;;;;;21.90;99.90;;;;;;7328387;19;110336;-57
2023/06/19 01:07:34;;;;;;;;;;;21.90;99.90;;;;;;7333745;19;109292;-57
2023/06/19 01:10:04;;;;;;;;;;;21.90;99.90;;;;;;7329655;19;109529;-57
2023/06/19 01:12:34;;;;;;;;;;;21.90;99.90;;;;;;7332838;19;109536;-57
2023/06/19 01:15:03;;;;;;;;;;;21.90;99.90;;;;;;7331527;19;109184;-58
2023/06/19 01:17:30;;;;;;;;;;;21.90;99.90;;;;;;7330454;19;109453;-57
2023/06/19 01:19:58;;;;;;;;;;;22.00;99.90;;;;;;7337735;19;109134;-55
2023/06/19 01:22:25;;;;;;;;;;;21.90;99.90;;;;;;7335636;19;112257;-57
2023/06/19 01:24:52;;;;;;;;;;;21.90;99.90;;;;;;7332714;19;109859;-58
2023/06/19 01:27:19;;;;;;;;;;;21.90;99.90;;;;;;7332021;19;109114;-57
2023/06/19 01:29:46;;;;;;;;;;;21.90;99.90;;;;;;7331493;19;109347;-57
2023/06/19 01:32:15;;;;;;;;;;;21.90;99.90;;;;;;7330789;19;110172;-56
2023/06/19 01:34:42;;;;;;;;;;;22.00;99.90;;;;;;7332580;19;109103;-56
2023/06/19 01:37:10;;;;;;;;;;;22.00;99.90;;;;;;7332001;19;109113;-55
2023/06/19 01:39:37;;;;;;;;;;;22.00;99.90;;;;;;7331073;19;109799;-58
2023/06/19 01:42:05;;;;;;;;;;;22.10;99.90;;;;;;7332500;19;109938;-56
2023/06/19 01:44:32;;;;;;;;;;;22.00;99.90;;;;;;7331355;19;109414;-57
2023/06/19 01:46:59;;;;;;;;;;;22.00;99.90;;;;;;7329502;19;108881;-58
2023/06/19 01:49:26;;;;;;;;;;;22.00;99.90;;;;;;7333110;19;108923;-58
2023/06/19 01:51:53;;;;;;;;;;;22.00;99.90;;;;;;7334457;19;109663;-57
2023/06/19 01:54:20;;;;;;;;;;;22.10;99.90;;;;;;7329240;19;109939;-57
2023/06/19 01:56:47;;;;;;;;;;;22.10;99.90;;;;;;7324891;19;108750;-57
2023/06/19 01:59:14;;;;;;;;;;;22.10;99.90;;;;;;7325883;19;112865;-53
2023/06/19 02:01:41;;;;;;;;;;;22.10;99.90;;;;;;7328187;19;109986;-56
2023/06/19 02:04:08;;;;;;;;;;;22.10;99.90;;;;;;7333120;19;108723;-54
2023/06/19 02:06:35;;;;;;;;;;;22.00;99.90;;;;;;7329303;19;110110;-54
2023/06/19 02:09:02;;;;;;;;;;;22.00;99.90;;;;;;7331112;19;108877;-58
2023/06/19 02:11:29;;;;;;;;;;;22.00;99.90;;;;;;7328925;19;109160;-61
2023/06/19 02:13:57;;;;;;;;;;;21.90;99.90;;;;;;7329518;19;108945;-56
2023/06/19 02:16:24;;;;;;;;;;;21.90;99.90;;;;;;7327130;19;108962;-54
2023/06/19 02:18:51;;;;;;;;;;;21.90;99.90;;;;;;7326749;19;109458;-59
2023/06/19 02:21:18;;;;;;;;;;;21.90;99.90;;;;;;7328196;19;109172;-61
2023/06/19 02:23:45;;;;;;;;;;;21.90;99.90;;;;;;7327979;19;109074;-59
2023/06/19 02:26:12;;;;;;;;;;;21.80;99.90;;;;;;7334668;19;109436;-56
2023/06/19 02:28:39;;;;;;;;;;;21.80;99.90;;;;;;7323836;19;108651;-53
2023/06/19 02:31:06;;;;;;;;;;;21.80;99.90;;;;;;7335019;19;109143;-57
2023/06/19 02:33:33;;;;;;;;;;;21.80;99.90;;;;;;7335929;19;109356;-58
2023/06/19 02:36:01;;;;;;;;;;;21.80;99.90;;;;;;7335634;19;109050;-57
2023/06/19 02:38:29;;;;;;;;;;;21.80;99.90;;;;;;7337092;19;111228;-59
2023/06/19 02:41:01;;;;;;;;;;;21.80;99.90;;;;;;7336250;19;109135;-57
2023/06/19 02:43:28;;;;;;;;;;;21.80;99.90;;;;;;7331946;19;108550;-56
2023/06/19 02:45:56;;;;;;;;;;;21.80;99.90;;;;;;7335784;19;110382;-57
2023/06/19 02:48:23;;;;;;;;;;;21.80;99.90;;;;;;7342349;19;110123;-57
2023/06/19 02:50:50;;;;;;;;;;;21.80;99.90;;;;;;7335711;19;109791;-58
2023/06/19 02:53:17;;;;;;;;;;;21.80;99.90;;;;;;7334517;19;108816;-55
2023/06/19 02:55:44;;;;;;;;;;;21.80;99.90;;;;;;7333869;19;108570;-57
2023/06/19 02:58:11;;;;;;;;;;;21.80;99.90;;;;;;7334533;19;109146;-58
2023/06/19 03:00:38;;;;;;;;;;;21.80;99.90;;;;;;7332267;19;109125;-58
2023/06/19 03:03:05;;;;;;;;;;;21.80;99.90;;;;;;7329867;19;109376;-56
2023/06/19 03:05:33;;;;;;;;;;;21.80;99.90;;;;;;7332120;19;110560;-56
2023/06/19 03:08:00;;;;;;;;;;;21.80;99.90;;;;;;7338676;19;111004;-57
2023/06/19 03:10:27;;;;;;;;;;;21.90;99.90;;;;;;7332474;19;109479;-57
2023/06/19 03:12:54;;;;;;;;;;;21.80;99.90;;;;;;7330682;19;110452;-57
2023/06/19 03:15:21;;;;;;;;;;;21.80;99.90;;;;;;7330552;19;109839;-57
2023/06/19 03:17:48;;;;;;;;;;;21.80;99.90;;;;;;7328365;19;110702;-55
2023/06/19 03:20:15;;;;;;;;;;;21.80;99.90;;;;;;7330839;19;111978;-56
2023/06/19 03:22:42;;;;;;;;;;;21.80;99.90;;;;;;7332015;19;111816;-61
2023/06/19 03:25:09;;;;;;;;;;;21.80;99.90;;;;;;7332935;19;110859;-56
2023/06/19 03:27:36;;;;;;;;;;;21.80;99.90;;;;;;7332356;19;109841;-56
2023/06/19 03:30:08;;;;;;;;;;;21.80;99.90;;;;;;7338745;19;109617;-58
2023/06/19 03:32:35;;;;;;;;;;;21.80;99.90;;;;;;7331316;19;112010;-57
2023/06/19 03:35:02;;;;;;;;;;;21.80;99.90;;;;;;7333676;19;109322;-58
2023/06/19 03:37:29;;;;;;;;;;;21.90;99.90;;;;;;7335777;19;110234;-57
2023/06/19 03:39:56;;;;;;;;;;;21.90;99.90;;;;;;7326767;19;109973;-58
2023/06/19 03:42:23;;;;;;;;;;;21.90;99.90;;;;;;7330984;19;108989;-57
2023/06/19 03:44:50;;;;;;;;;;;21.90;99.90;;;;;;7330438;19;109107;-57
2023/06/19 03:47:17;;;;;;;;;;;21.90;99.90;;;;;;7335257;19;110176;-58
2023/06/19 03:49:44;;;;;;;;;;;21.90;99.90;;;;;;7331369;19;109743;-56
2023/06/19 03:52:11;;;;;;;;;;;21.90;99.90;;;;;;7334648;19;109571;-57
2023/06/19 03:54:38;;;;;;;;;;;21.90;99.90;;;;;;7332158;19;110445;-56
2023/06/19 03:57:06;;;;;;;;;;;21.90;99.90;;;;;;7331870;19;109687;-59
2023/06/19 03:59:33;;;;;;;;;;;21.90;99.90;;;;;;7331700;19;108823;-55
2023/06/19 04:02:00;;;;;;;;;;;21.90;99.90;;;;;;7332817;19;109405;-57
2023/06/19 04:04:27;;;;;;;;;;;21.90;99.90;;;;;;7330276;19;112028;-57
2023/06/19 04:06:54;;;;;;;;;;;21.90;99.90;;;;;;7333707;19;108969;-56
2023/06/19 04:09:22;;;;;;;;;;;21.80;99.90;;;;;;7331091;19;109165;-57
2023/06/19 04:11:49;;;;;;;;;;;21.80;99.90;;;;;;7330762;19;111972;-56
2023/06/19 04:14:16;;;;;;;;;;;21.80;99.90;;;;;;7337180;19;109418;-55
2023/06/19 04:16:43;;;;;;;;;;;21.80;99.90;;;;;;7330737;19;109414;-58
2023/06/19 04:19:10;;;;;;;;;;;21.80;99.90;;;;;;7332079;19;110108;-57
2023/06/19 04:21:37;;;;;;;;;;;21.80;99.90;;;;;;7329137;19;111413;-57
2023/06/19 04:24:08;;;;;;;;;;;21.80;99.90;;;;;;7328539;19;109562;-58
2023/06/19 04:26:36;;;;;;;;;;;21.80;99.90;;;;;;7326118;19;110086;-58
2023/06/19 04:29:05;;;;;;;;;;;21.80;99.90;;;;;;7328221;19;109445;-58
2023/06/19 04:31:32;;;;;;;;;;;21.70;99.90;;;;;;7323788;19;109850;-57
2023/06/19 04:33:59;;;;;;;;;;;21.70;99.90;;;;;;7332196;19;108894;-57
2023/06/19 04:36:26;;;;;;;;;;;21.60;99.90;;;;;;7334714;19;108886;-56
2023/06/19 04:38:53;;;;;;;;;;;21.60;99.90;;;;;;7329830;19;108829;-58
2023/06/19 04:41:20;;;;;;;;;;;21.60;99.90;;;;;;7326695;19;110282;-57
2023/06/19 04:43:47;;;;;;;;;;;21.50;99.90;;;;;;7330680;19;109491;-58
2023/06/19 04:46:20;;;;;;;;;;;21.50;99.90;;;;;;7329293;19;109406;-57
2023/06/19 04:48:50;;;;;;;;;;;21.50;99.90;;;;;;7332112;19;109659;-58
2023/06/19 04:51:21;;;;;;;;;;;21.50;99.90;;;;;;7332399;19;110155;-57
2023/06/19 04:53:48;;;;;;;;;;;21.50;99.90;;;;;;7327226;19;110362;-57
2023/06/19 04:56:15;;;;;;;;;;;21.50;99.90;;;;;;7331599;19;109871;-59
2023/06/19 04:58:48;;;;;;;;;;;21.50;99.90;;;;;;7337716;19;109543;-57
2023/06/19 05:01:16;;;;;;;;;;;21.50;99.90;;;;;;7329242;19;110384;-58
2023/06/19 05:03:47;;;;;;;;;;;21.50;99.90;;;;;;7333147;19;110436;-56
2023/06/19 05:06:14;;;;;;;;;;;21.50;99.90;;;;;;7331677;19;109965;-58
2023/06/19 05:08:41;;;;;;;;;;;21.50;99.90;;;;;;7330912;19;109075;-56
2023/06/19 05:11:08;;;;;;;;;;;21.50;99.90;;;;;;7331076;19;109676;-59
2023/06/19 05:13:35;;;;;;;;;;;21.50;99.90;;;;;;7328080;19;110200;-56
2023/06/19 05:16:02;;;;;;;;;;;21.50;99.90;;;;;;7327643;19;109781;-58
2023/06/19 05:18:29;;;;;;;;;;;21.60;99.90;;;;;;7332530;19;110158;-58
2023/06/19 05:20:56;;;;;;;;;;;21.60;99.90;;;;;;7328347;19;111352;-58
2023/06/19 05:23:23;;;;;;;;;;;21.60;99.90;;;;;;7326008;19;110083;-57
2023/06/19 05:25:50;;;;;;;;;;;21.70;99.90;;;;;;7328210;19;109460;-57
2023/06/19 05:28:17;;;;;;;;;;;21.70;99.90;;;;;;7327051;19;109165;-56
2023/06/19 05:30:44;;;;;;;;;;;21.80;99.90;;;;;;7329960;19;109923;-57
2023/06/19 05:33:15;;;;;;;;;;;21.80;99.90;;;;;;7326681;19;109636;-58
2023/06/19 05:35:43;;;;;;;;;;;21.90;99.90;;;;;;7328512;19;108866;-57
2023/06/19 05:38:10;;;;;;;;;;;21.90;99.90;;;;;;7330682;19;112467;-58
2023/06/19 05:40:37;;;;;;;;;;;21.90;99.90;;;;;;7335448;19;109969;-57
2023/06/19 05:43:04;;;;;;;;;;;21.90;99.90;;;;;;7327750;19;112030;-61
2023/06/19 05:45:31;;;;;;;;;;;22.00;99.90;;;;;;7331244;19;110885;-60
2023/06/19 05:47:59;;;;;;;;;;;22.00;99.90;;;;;;7331951;19;108684;-61
2023/06/19 05:50:26;;;;;;;;;;;22.10;99.90;;;;;;7332473;19;109195;-60
2023/06/19 05:52:53;;;;;;;;;;;22.20;99.90;;;;;;7332583;19;110041;-61
2023/06/19 05:55:20;;;;;;;;;;;22.10;99.90;;;;;;7333192;19;108546;-60
2023/06/19 05:57:47;;;;;;;;;;;22.20;99.90;;;;;;7329755;19;109680;-60
2023/06/19 06:00:15;;;;;;;;;;;22.20;99.90;;;;;;7332721;19;110461;-60
2023/06/19 06:02:43;;;;;;;;;;;22.30;99.90;;;;;;7338679;19;108915;-60
2023/06/19 06:05:10;;;;;;;;;;;22.30;99.90;;;;;;7332912;19;108520;-61
2023/06/19 06:07:37;;;;;;;;;;;22.30;99.90;;;;;;7339278;19;109115;-60
2023/06/19 06:10:07;;;;;;;;;;;22.40;99.90;;;;;;7335720;19;109697;-60
2023/06/19 06:12:37;;;;;;;;;;;22.30;99.90;;;;;;7340681;19;109272;-60
2023/06/19 06:15:05;;;;;;;;;;;22.40;99.90;;;;;;7339552;19;109067;-60
2023/06/19 06:17:32;;;;;;;;;;;22.40;99.90;;;;;;7339134;19;110525;-60
2023/06/19 06:19:59;;;;;;;;;;;22.40;99.90;;;;;;7338019;19;109812;-60
2023/06/19 06:22:26;;;;;;;;;;;22.50;99.90;;;;;;7338465;19;109279;-60
2023/06/19 06:24:54;;;;;;;;;;;22.60;99.90;;;;;;7343772;19;109252;-60
2023/06/19 06:27:21;;;;;;;;;;;22.70;99.90;;;;;;7339545;19;109892;-60
2023/06/19 06:29:48;;;;;;;;;;;22.80;99.90;;;;;;7336347;19;109972;-61
2023/06/19 06:32:15;;;;;;;;;;;22.80;99.90;;;;;;7338734;19;108641;-60
2023/06/19 06:34:42;;;;;;;;;;;22.80;99.90;;;;;;7337766;19;109064;-61
2023/06/19 06:37:09;;;;;;;;;;;22.80;99.90;;;;;;7336603;19;109871;-60
2023/06/19 06:39:38;;;;;;;;;;;22.80;99.90;;;;;;7340440;19;108469;-60
2023/06/19 06:42:05;;;;;;;;;;;22.80;99.90;;;;;;7339280;19;109512;-60
2023/06/19 06:44:32;;;;;;;;;;;22.80;99.90;;;;;;7338060;19;109724;-60
2023/06/19 06:46:59;;;;;;;;;;;22.80;99.90;;;;;;7339518;19;109107;-60
2023/06/19 06:49:26;;;;;;;;;;;22.80;99.90;;;;;;7336109;19;109160;-60
2023/06/19 06:51:53;;;;;;;;;;;22.80;99.90;;;;;;7340135;19;108772;-61
2023/06/19 06:54:23;;;;;;;;;;;22.90;99.90;;;;;;7337850;19;109451;-61
2023/06/19 06:56:52;;;;;;;;;;;22.90;99.90;;;;;;7336989;19;109089;-61
2023/06/19 06:59:19;;;;;;;;;;;22.90;99.90;;;;;;7337864;19;108221;-60
2023/06/19 07:01:46;;;;;;;;;;;22.90;99.90;;;;;;7334466;19;109487;-61
2023/06/19 07:04:13;;;;;;;;;;;23.00;99.90;;;;;;7333821;19;110630;-61
2023/06/19 07:06:40;;;;;;;;;;;23.10;99.90;;;;;;7337218;19;108773;-61
2023/06/19 07:09:08;;;;;;;;;;;23.40;99.90;;;;;;7342416;19;108402;-61
2023/06/19 07:11:35;;;;;;;;;;;23.50;99.90;;;;;;7336211;19;113326;-61
2023/06/19 07:14:02;;;;;;;;;;;23.50;99.90;;;;;;7335258;19;109095;-61
2023/06/19 07:16:30;;;;;;;;;;;23.50;99.90;;;;;;7336352;19;109326;-61
2023/06/19 07:18:57;;;;;;;;;;;23.50;99.90;;;;;;7335675;19;108446;-61
2023/06/19 07:21:25;;;;;;;;;;;23.50;99.90;;;;;;7336458;19;108919;-61
2023/06/19 07:23:52;;;;;;;;;;;23.60;99.90;;;;;;7332789;19;110404;-61
2023/06/19 07:26:20;;;;;;;;;;;23.60;99.90;;;;;;7338781;19;108791;-61
2023/06/19 07:28:47;;;;;;;;;;;23.60;99.90;;;;;;7339052;19;108950;-61
2023/06/19 07:31:14;;;;;;;;;;;23.50;99.90;;;;;;7337123;19;108458;-60
2023/06/19 07:33:41;;;;;;;;;;;23.60;99.90;;;;;;7334027;19;109464;-62
2023/06/19 07:36:13;;;;;;;;;;;23.70;99.90;;;;;;7335736;19;110069;-59
2023/06/19 07:38:41;;;;;;;;;;;23.80;99.90;;;;;;7332542;19;108762;-59
2023/06/19 07:41:09;;;;;;;;;;;23.90;99.90;;;;;;7335617;19;109791;-59
2023/06/19 07:43:39;;;;;;;;;;;23.90;99.90;;;;;;7333628;19;110076;-59
2023/06/19 07:46:06;;;;;;;;;;;23.90;99.90;;;;;;7336658;19;110128;-59
2023/06/19 07:48:33;;;;;;;;;;;23.90;99.90;;;;;;7335581;19;109343;-60
2023/06/19 07:51:00;;;;;;;;;;;23.90;99.90;;;;;;7340614;19;108979;-60
2023/06/19 07:53:27;;;;;;;;;;;23.90;99.90;;;;;;7335141;19;110466;-60
2023/06/19 07:55:54;;;;;;;;;;;23.90;99.90;;;;;;7333114;19;109508;-60
2023/06/19 07:58:22;;;;;;;;;;;23.90;99.90;;;;;;7335251;19;108839;-59
2023/06/19 08:00:49;;;;;;;;;;;23.90;99.90;;;;;;7335829;19;108838;-59
2023/06/19 08:03:16;;;;;;;;;;;24.00;99.90;;;;;;7330934;19;110296;-59
2023/06/19 08:05:43;;;;;;;;;;;23.90;99.90;;;;;;7336947;19;108874;-59
2023/06/19 08:08:11;;;;;;;;;;;23.90;99.90;;;;;;7336528;19;111830;-59
2023/06/19 08:10:38;;;;;;;;;;;23.90;99.70;;;;;;7335208;19;109189;-59
2023/06/19 08:13:05;;;;;;;;;;;23.90;99.70;;;;;;7340854;19;109297;-58
2023/06/19 08:15:32;;;;;;;;;;;23.90;99.90;;;;;;7335669;19;110919;-59
2023/06/19 08:18:00;;;;;;;;;;;24.00;99.80;;;;;;7333054;19;109743;-59
2023/06/19 08:20:27;;;;;;;;;;;24.10;99.80;;;;;;7333099;19;110247;-60
2023/06/19 08:22:55;;;;;;;;;;;24.30;99.80;;;;;;7332359;19;110244;-59
2023/06/19 08:25:22;;;;;;;;;;;24.30;99.60;;;;;;7333859;19;110392;-59
2023/06/19 08:27:50;;;;;;;;;;;24.40;99.80;;;;;;7332667;19;111131;-60
2023/06/19 08:30:17;;;;;;;;;;;24.40;99.60;;;;;;7332306;19;110483;-59
2023/06/19 08:32:46;;;;;;;;;;;24.40;99.80;;;;;;7335642;19;109153;-59
2023/06/19 08:35:15;;;;;;;;;;;24.50;99.90;;;;;;7339216;19;108909;-59
2023/06/19 08:37:42;;;;;;;;;;;24.70;99.90;;;;;;7334893;19;108529;-59
2023/06/19 08:40:09;;;;;;;;;;;24.80;99.60;;;;;;7331998;19;109309;-59
2023/06/19 08:42:37;;;;;;;;;;;25.00;99.20;;;;;;7334252;19;109940;-59
2023/06/19 08:45:04;;;;;;;;;;;25.10;99.20;;;;;;7332088;19;111145;-59
2023/06/19 08:47:32;;;;;;;;;;;25.20;99.00;;;;;;7333748;19;109302;-60
2023/06/19 08:49:59;;;;;;;;;;;25.30;98.80;;;;;;7329405;19;109337;-59
2023/06/19 08:52:28;;;;;;;;;;;25.30;98.90;;;;;;7335267;19;108833;-59
2023/06/19 08:54:55;;;;;;;;;;;25.50;98.10;;;;;;7329856;19;109607;-59
2023/06/19 08:57:32;;;;;;;;;;;25.50;98.40;;;;;;7336703;19;110073;-60
2023/06/19 08:59:59;;;;;;;;;;;25.60;98.30;;;;;;7331121;19;108909;-59
2023/06/19 09:02:36;;;;;;;;;;;25.70;98.00;;;;;;7333603;19;110498;-61
2023/06/19 09:05:16;;;;;;;;;;;25.70;97.90;;;;;;7334504;19;109023;-59
2023/06/19 09:07:44;;;;;;;;;;;25.60;97.40;;;;;;7332908;19;108540;-59
2023/06/19 09:10:12;;;;;;;;;;;25.70;97.70;;;;;;7332821;19;110764;-59
2023/06/19 09:12:41;;;;;;;;;;;25.70;97.70;;;;;;7335509;19;108409;-59
2023/06/19 09:15:11;;;;;;;;;;;25.70;97.80;;;;;;7331821;19;108742;-59
2023/06/19 09:17:38;;;;;;;;;;;25.70;97.50;;;;;;7333858;19;109776;-60
2023/06/19 09:20:07;;;;;;;;;;;25.70;97.80;;;;;;7337647;19;109037;-58
2023/06/19 09:22:34;;;;;;;;;;;25.80;97.90;;;;;;7334723;19;110121;-59
2023/06/19 09:25:02;;;;;;;;;;;25.80;97.40;;;;;;7333696;19;109180;-60
2023/06/19 09:27:32;;;;;;;;;;;25.90;97.40;;;;;;7334103;19;109493;-59
2023/06/19 09:30:00;;;;;;;;;;;26.00;96.90;;;;;;7331233;19;110047;-59
2023/06/19 09:32:28;;;;;;;;;;;26.00;96.40;;;;;;7331240;19;110644;-59
2023/06/19 09:34:58;;;;;;;;;;;26.00;96.20;;;;;;7331140;19;109302;-59
2023/06/19 09:37:29;;;;;;;;;;;26.00;96.20;;;;;;7333182;19;113197;-59
2023/06/19 09:40:01;;;;;;;;;;;26.00;95.60;;;;;;7339878;19;108685;-59
2023/06/19 09:42:28;;;;;;;;;;;26.00;96.10;;;;;;7339141;19;110937;-59
2023/06/19 09:45:00;;;;;;;;;;;26.00;96.30;;;;;;7337000;19;109024;-59
2023/06/19 09:47:30;;;;;;;;;;;26.10;95.80;;;;;;7338530;19;109067;-59
2023/06/19 09:49:57;;;;;;;;;;;26.10;96.10;;;;;;7339851;19;110643;-60
2023/06/19 09:52:24;;;;;;;;;;;26.20;96.00;;;;;;7339606;19;109008;-60
2023/06/19 09:54:53;;;;;;;;;;;26.30;95.60;;;;;;7339263;19;111987;-60
2023/06/19 09:57:20;;;;;;;;;;;26.30;95.60;;;;;;7336922;19;109567;-60
2023/06/19 09:59:49;;;;;;;;;;;26.40;95.30;;;;;;7340008;19;110491;-59
2023/06/19 10:02:17;;;;;;;;;;;26.40;95.20;;;;;;7344751;19;109622;-60
2023/06/19 10:04:46;;;;;;;;;;;26.50;95.30;;;;;;7341376;19;108588;-60
2023/06/19 10:07:17;;;;;;;;;;;26.70;95.30;;;;;;7338372;19;109676;-60
2023/06/19 10:09:56;;;;;;;;;;;26.90;94.30;;;;;;7338855;19;109104;-60
2023/06/19 10:12:34;;;;;;;;;;;27.00;93.90;;;;;;7340902;19;108834;-60
2023/06/19 10:15:27;;;;;;;;;;;26.90;94.40;;;;;;7338938;19;110005;-59
2023/06/19 10:18:04;;;;;;;;;;;27.00;94.20;;;;;;7336264;19;110867;-60
2023/06/19 10:20:38;;;;;;;;;;;27.00;93.80;;;;;;7339811;19;109033;-59
2023/06/19 10:23:18;;;;;;;;;;;27.00;93.90;;;;;;7337887;19;108661;-60
2023/06/19 10:25:48;;;;;;;;;;;27.00;94.00;;;;;;7341706;19;109716;-59
2023/06/19 10:28:25;;;;;;;;;;;27.00;94.40;;;;;;7339391;19;112871;-60
2023/06/19 10:30:53;;;;;;;;;;;27.00;93.70;;;;;;7339820;19;109492;-60
2023/06/19 10:33:21;;;;;;;;;;;27.00;94.20;;;;;;7339682;19;108770;-60
2023/06/19 10:35:48;;;;;;;;;;;27.10;93.00;;;;;;7338847;19;109060;-60
2023/06/19 10:38:16;;;;;;;;;;;27.20;93.50;;;;;;7339753;19;110349;-60
2023/06/19 10:40:44;;;;;;;;;;;27.20;92.90;;;;;;7336266;19;108863;-60
2023/06/19 10:43:12;;;;;;;;;;;27.20;92.80;;;;;;7339614;19;108727;-60
2023/06/19 10:45:39;;;;;;;;;;;27.20;93.30;;;;;;7338497;19;109204;-60
2023/06/19 10:48:08;;;;;;;;;;;27.30;93.40;;;;;;7344115;19;110429;-60
2023/06/19 10:50:41;;;;;;;;;;;27.40;93.20;;;;;;7337312;19;109128;-60
2023/06/19 10:53:09;;;;;;;;;;;27.50;93.30;;;;;;7332502;19;108770;-60
2023/06/19 10:55:36;;;;;;;;;;;27.60;93.30;;;;;;7334649;19;109292;-60
2023/06/19 10:58:03;;;;;;;;;;;27.70;93.00;;;;;;7335186;19;109632;-60
2023/06/19 11:00:31;;;;;;;;;;;27.80;91.90;;;;;;7337923;19;110708;-60
2023/06/19 11:02:58;;;;;;;;;;;27.80;91.90;;;;;;7335803;19;108606;-60
2023/06/19 11:05:27;;;;;;;;;;;27.80;91.80;;;;;;7337478;19;110292;-60
2023/06/19 11:07:55;;;;;;;;;;;27.90;92.30;;;;;;7336792;19;108996;-60
2023/06/19 11:10:24;;;;;;;;;;;27.90;92.50;;;;;;7342186;19;109166;-60
2023/06/19 11:12:55;;;;;;;;;;;28.00;91.80;;;;;;7336468;19;109657;-60
2023/06/19 11:15:31;;;;;;;;;;;28.10;91.80;;;;;;7335255;19;108556;-59
2023/06/19 11:17:59;;;;;;;;;;;28.10;91.20;;;;;;7334675;19;109150;-59
2023/06/19 11:20:26;;;;;;;;;;;28.20;91.70;;;;;;7337684;19;108495;-60
2023/06/19 11:22:55;;;;;;;;;;;28.30;91.50;;;;;;7333129;19;110350;-60
2023/06/19 11:25:22;;;;;;;;;;;28.30;91.40;;;;;;7335134;19;109729;-60
2023/06/19 11:27:51;;;;;;;;;;;28.40;91.30;;;;;;7332575;19;111145;-59
2023/06/19 11:30:21;;;;;;;;;;;28.30;91.00;;;;;;7339885;19;110548;-60
2023/06/19 11:32:52;;;;;;;;;;;28.40;90.80;;;;;;7335194;19;109450;-60
2023/06/19 11:35:21;;;;;;;;;;;28.50;90.20;;;;;;7331332;19;108763;-60
2023/06/19 11:37:48;;;;;;;;;;;28.50;90.60;;;;;;7338632;19;109704;-60
2023/06/19 11:40:17;;;;;;;;;;;28.60;90.10;;;;;;7336896;19;108612;-60
2023/06/19 11:42:45;;;;;;;;;;;28.60;89.40;;;;;;7337241;19;109098;-60
2023/06/19 11:45:13;;;;;;;;;;;28.60;89.40;;;;;;7335721;19;109262;-60
2023/06/19 11:47:40;;;;;;;;;;;28.60;87.60;;;;;;7338976;19;108741;-60
2023/06/19 11:50:08;;;;;;;;;;;28.60;88.50;;;;;;7334465;19;109750;-60
2023/06/19 11:52:36;;;;;;;;;;;28.70;88.50;;;;;;7342029;19;111454;-59
2023/06/19 11:55:03;;;;;;;;;;;28.80;90.30;;;;;;7339414;19;108962;-60
2023/06/19 11:57:30;;;;;;;;;;;29.00;89.70;;;;;;7338312;19;109110;-60
2023/06/19 11:59:57;;;;;;;;;;;29.10;89.60;;;;;;7337371;19;108615;-60
2023/06/19 12:02:24;;;;;;;;;;;29.10;87.50;;;;;;7334002;19;109235;-60
2023/06/19 12:04:52;;;;;;;;;;;29.30;88.30;;;;;;7337957;19;109648;-59
2023/06/19 12:07:19;;;;;;;;;;;29.40;87.80;;;;;;7336479;19;109849;-59
2023/06/19 12:09:46;;;;;;;;;;;29.40;84.80;;;;;;7337903;19;109123;-59
2023/06/19 12:12:13;;;;;;;;;;;29.40;85.10;;;;;;7338849;19;109258;-60
2023/06/19 12:14:40;;;;;;;;;;;29.50;86.30;;;;;;7342247;19;111300;-60
2023/06/19 12:17:08;;;;;;;;;;;29.60;87.30;;;;;;7335793;19;109473;-60
2023/06/19 12:19:35;;;;;;;;;;;29.80;85.70;;;;;;7336196;19;112886;-60
2023/06/19 12:22:03;;;;;;;;;;;29.80;86.10;;;;;;7335783;19;109454;-66
2023/06/19 12:24:30;;;;;;;;;;;29.90;85.70;;;;;;7336399;19;110955;-60
2023/06/19 12:26:57;;;;;;;;;;;30.00;85.60;;;;;;7333353;19;108637;-60
2023/06/19 12:29:26;;;;;;;;;;;30.10;84.70;;;;;;7335680;19;108876;-60
2023/06/19 12:31:58;;;;;;;;;;;30.20;82.60;;;;;;7332239;19;109904;-60
2023/06/19 12:34:26;;;;;;;;;;;30.20;81.20;;;;;;7334312;19;108548;-60
2023/06/19 12:36:57;;;;;;;;;;;30.20;84.70;;;;;;7334410;19;110312;-60
2023/06/19 12:39:25;;;;;;;;;;;30.40;81.80;;;;;;7333482;19;110009;-60
2023/06/19 12:41:53;;;;;;;;;;;30.40;79.50;;;;;;7330129;19;109145;-60
2023/06/19 12:44:21;;;;;;;;;;;30.30;79.20;;;;;;7335923;19;110663;-60
2023/06/19 12:46:48;;;;;;;;;;;30.30;83.50;;;;;;7332100;19;109610;-60
2023/06/19 12:49:15;;;;;;;;;;;30.50;80.10;;;;;;7337335;19;108842;-60
2023/06/19 12:51:43;;;;;;;;;;;30.70;81.30;;;;;;7333788;19;110387;-60
2023/06/19 12:54:10;;;;;;;;;;;30.90;81.40;;;;;;7336516;19;108489;-61
2023/06/19 12:56:37;;;;;;;;;;;31.10;79.90;;;;;;7334572;19;112892;-60
2023/06/19 12:59:04;;;;;;;;;;;31.20;78.70;;;;;;7344025;19;109139;-60
2023/06/19 13:01:31;;;;;;;;;;;31.20;78.40;;;;;;7335937;19;109866;-60
2023/06/19 13:03:58;;;;;;;;;;;31.20;76.80;;;;;;7336031;19;109541;-60
2023/06/19 13:06:26;;;;;;;;;;;31.40;79.10;;;;;;7334331;19;109055;-60
2023/06/19 13:08:53;;;;;;;;;;;31.50;76.60;;;;;;7335627;19;109179;-60
2023/06/19 13:11:20;;;;;;;;;;;31.60;76.60;;;;;;7332809;19;109187;-60
2023/06/19 13:13:47;;;;;;;;;;;31.60;74.30;;;;;;7329164;19;108892;-60
2023/06/19 13:16:15;;;;;;;;;;;31.80;75.90;;;;;;7331704;19;109096;-60
2023/06/19 13:18:43;;;;;;;;;;;31.80;73.90;;;;;;7333061;19;111554;-60
2023/06/19 13:21:10;;;;;;;;;;;32.00;75.70;;;;;;7338289;19;110416;-65
2023/06/19 13:23:38;;;;;;;;;;;32.10;72.50;;;;;;7336414;19;109231;-60
2023/06/19 13:26:05;;;;;;;;;;;32.20;73.70;;;;;;7338055;19;109540;-60
2023/06/19 13:28:33;;;;;;;;;;;32.20;73.60;;;;;;7331591;19;108693;-60
2023/06/19 13:31:00;;;;;;;;;;;32.40;74.20;;;;;;7333002;19;110690;-60
2023/06/19 13:33:28;;;;;;;;;;;32.50;71.20;;;;;;7333621;19;109283;-60
2023/06/19 13:35:55;;;;;;;;;;;32.60;72.00;;;;;;7334417;19;108612;-60
2023/06/19 13:38:22;;;;;;;;;;;32.60;70.70;;;;;;7332372;19;109426;-60
2023/06/19 13:40:49;;;;;;;;;;;32.70;72.70;;;;;;7336419;19;108240;-60
2023/06/19 13:43:17;;;;;;;;;;;32.80;72.70;;;;;;7330758;19;111555;-60
2023/06/19 13:45:44;;;;;;;;;;;32.80;71.10;;;;;;7330835;19;109190;-61
2023/06/19 13:48:11;;;;;;;;;;;32.90;71.90;;;;;;7333743;19;110166;-60
2023/06/19 13:50:38;;;;;;;;;;;32.80;68.00;;;;;;7331462;19;109106;-60
2023/06/19 13:53:05;;;;;;;;;;;32.80;71.20;;;;;;7332609;19;109047;-60
2023/06/19 13:55:32;;;;;;;;;;;32.90;69.90;;;;;;7332065;19;110861;-60
2023/06/19 13:57:59;;;;;;;;;;;32.70;68.30;;;;;;7331060;19;110187;-60
2023/06/19 14:00:26;;;;;;;;;;;32.70;69.40;;;;;;7337207;19;108825;-60
2023/06/19 14:02:54;;;;;;;;;;;32.80;71.50;;;;;;7335573;19;108563;-60
2023/06/19 14:05:21;;;;;;;;;;;33.00;73.00;;;;;;7334807;19;108873;-60
2023/06/19 14:07:48;;;;;;;;;;;33.20;70.60;;;;;;7331816;19;108661;-61